createdAt,value
2022-11-28T00:00:10.098Z,3.52
2022-11-28T00:01:10.105Z,3.58
2022-11-28T00:02:10.222Z,3.56
2022-11-28T00:03:10.279Z,3.50
2022-11-28T00:04:10.141Z,3.59
2022-11-28T00:05:10.149Z,3.52
2022-11-28T00:06:10.156Z,3.55
2022-11-28T00:07:10.166Z,3.56
2022-11-28T00:08:10.171Z,3.55
2022-11-28T00:09:10.180Z,3.58
2022-11-28T00:10:10.192Z,3.55
2022-11-28T00:11:10.203Z,3.49
2022-11-28T00:12:10.217Z,3.66
2022-11-28T00:13:10.222Z,3.55
2022-11-28T00:14:10.246Z,3.55
2022-11-28T00:15:10.240Z,3.53
2022-11-28T00:16:10.293Z,3.50
2022-11-28T00:17:10.257Z,3.50
2022-11-28T00:18:10.265Z,3.46
2022-11-28T00:19:10.284Z,3.50
2022-11-28T00:20:10.285Z,3.53
2022-11-28T00:21:10.306Z,3.64
2022-11-28T00:22:10.311Z,3.49
2022-11-28T00:23:10.319Z,3.66
2022-11-28T00:24:10.332Z,3.49
2022-11-28T00:25:10.335Z,3.58
2022-11-28T00:26:10.348Z,3.55
2022-11-28T00:27:10.356Z,3.48
2022-11-28T00:28:10.359Z,3.52
2022-11-28T00:29:10.372Z,3.59
2022-11-28T00:30:10.379Z,3.63
2022-11-28T00:31:10.388Z,3.49
2022-11-28T00:32:10.466Z,3.55
2022-11-28T00:33:10.415Z,3.48
2022-11-28T00:34:10.430Z,3.49
2022-11-28T00:35:10.426Z,3.49
2022-11-28T00:36:10.439Z,3.56
2022-11-28T00:37:10.446Z,3.52
2022-11-28T00:38:10.461Z,3.50
2022-11-28T00:39:10.465Z,3.49
2022-11-28T00:40:10.471Z,3.61
2022-11-28T00:41:10.481Z,3.49
2022-11-28T00:42:10.492Z,3.53
2022-11-28T00:43:10.504Z,3.48
2022-11-28T00:44:10.519Z,3.49
2022-11-28T00:45:10.551Z,3.59
2022-11-28T00:46:10.610Z,3.59
2022-11-28T00:47:10.543Z,3.52
2022-11-28T00:48:10.553Z,3.50
2022-11-28T00:49:10.579Z,3.53
2022-11-28T00:50:10.587Z,3.63
2022-11-28T00:51:10.584Z,3.61
2022-11-28T00:52:10.603Z,3.66
2022-11-28T00:53:10.611Z,3.64
2022-11-28T00:54:10.626Z,3.50
2022-11-28T00:55:10.617Z,3.52
2022-11-28T00:56:10.628Z,3.58
2022-11-28T00:57:10.639Z,3.50
2022-11-28T00:58:10.660Z,3.49
2022-11-28T00:59:10.658Z,3.49
2022-11-28T01:00:10.664Z,3.50
2022-11-28T01:01:10.717Z,3.59
2022-11-28T01:02:10.749Z,3.49
2022-11-28T01:03:10.690Z,3.55
2022-11-28T01:04:10.697Z,3.48
2022-11-28T01:05:10.707Z,3.50
2022-11-28T01:06:10.718Z,3.55
2022-11-28T01:07:10.729Z,3.46
2022-11-28T01:08:10.735Z,3.52
2022-11-28T01:09:10.745Z,3.48
2022-11-28T01:10:10.755Z,3.48
2022-11-28T01:11:10.770Z,3.50
2022-11-28T01:12:10.774Z,3.48
2022-11-28T01:13:10.784Z,3.50
2022-11-28T01:14:10.793Z,3.53
2022-11-28T01:15:10.801Z,3.53
2022-11-28T01:16:10.860Z,3.46
2022-11-28T01:17:10.824Z,3.49
2022-11-28T01:18:10.830Z,3.37
2022-11-28T01:19:10.843Z,3.40
2022-11-28T01:20:10.848Z,3.43
2022-11-28T01:21:10.860Z,3.48
2022-11-28T01:22:10.869Z,3.34
2022-11-28T01:23:10.877Z,3.40
2022-11-28T01:24:10.885Z,3.34
2022-11-28T01:25:10.894Z,3.43
2022-11-28T01:26:10.903Z,3.37
2022-11-28T01:27:10.913Z,3.34
2022-11-28T01:28:10.926Z,3.40
2022-11-28T01:29:10.932Z,3.41
2022-11-28T01:30:10.941Z,3.41
2022-11-28T01:31:10.995Z,3.41
2022-11-28T01:32:10.958Z,3.36
2022-11-28T01:33:10.969Z,3.26
2022-11-28T01:34:10.981Z,3.29
2022-11-28T01:35:10.988Z,3.24
2022-11-28T01:36:10.996Z,3.30
2022-11-28T01:37:11.011Z,3.31
2022-11-28T01:38:11.016Z,3.37
2022-11-28T01:39:11.028Z,3.36
2022-11-28T01:40:11.033Z,3.37
2022-11-28T01:41:11.042Z,3.26
2022-11-28T01:42:11.052Z,3.31
2022-11-28T01:43:11.062Z,3.27
2022-11-28T01:44:11.070Z,3.26
2022-11-28T01:45:11.078Z,3.29
2022-11-28T01:46:11.149Z,3.24
2022-11-28T01:47:11.149Z,3.27
2022-11-28T01:48:11.109Z,3.36
2022-11-28T01:49:11.115Z,3.33
2022-11-28T01:50:11.126Z,3.26
2022-11-28T01:51:11.135Z,3.27
2022-11-28T01:52:11.143Z,3.24
2022-11-28T01:53:11.154Z,3.31
2022-11-28T01:54:11.162Z,3.36
2022-11-28T01:55:11.174Z,3.24
2022-11-28T01:56:11.181Z,3.27
2022-11-28T01:57:11.189Z,3.27
2022-11-28T01:58:11.200Z,3.22
2022-11-28T01:59:11.209Z,3.31
2022-11-28T02:00:11.218Z,3.30
2022-11-28T02:01:11.315Z,3.30
2022-11-28T02:02:11.299Z,3.33
2022-11-28T02:03:11.245Z,3.22
2022-11-28T02:04:11.253Z,3.33
2022-11-28T02:05:11.263Z,3.33
2022-11-28T02:06:11.273Z,3.31
2022-11-28T02:07:11.285Z,3.31
2022-11-28T02:08:11.290Z,3.26
2022-11-28T02:09:11.301Z,3.26
2022-11-28T02:10:11.312Z,3.22
2022-11-28T02:11:11.321Z,3.29
2022-11-28T02:12:11.334Z,3.26
2022-11-28T02:13:11.346Z,3.22
2022-11-28T02:14:11.347Z,3.27
2022-11-28T02:15:11.355Z,3.18
2022-11-28T02:16:11.447Z,3.13
2022-11-28T02:17:11.372Z,3.22
2022-11-28T02:18:11.386Z,3.21
2022-11-28T02:19:11.395Z,3.18
2022-11-28T02:20:11.399Z,3.27
2022-11-28T02:21:11.408Z,3.21
2022-11-28T02:22:11.420Z,3.21
2022-11-28T02:23:11.429Z,3.11
2022-11-28T02:24:11.436Z,3.09
2022-11-28T02:25:11.451Z,3.06
2022-11-28T02:26:11.458Z,3.18
2022-11-28T02:27:11.470Z,3.13
2022-11-28T02:28:11.475Z,3.16
2022-11-28T02:29:11.484Z,3.05
2022-11-28T02:30:11.492Z,3.15
2022-11-28T02:31:11.581Z,3.05
2022-11-28T02:32:11.512Z,3.05
2022-11-28T02:33:11.519Z,3.11
2022-11-28T02:34:11.529Z,3.09
2022-11-28T02:35:11.545Z,3.13
2022-11-28T02:36:11.547Z,3.13
2022-11-28T02:37:11.556Z,3.13
2022-11-28T02:38:11.568Z,3.01
2022-11-28T02:39:11.574Z,3.09
2022-11-28T02:40:11.584Z,3.05
2022-11-28T02:41:11.592Z,3.05
2022-11-28T02:42:11.599Z,3.06
2022-11-28T02:43:11.610Z,3.03
2022-11-28T02:44:11.616Z,3.09
2022-11-28T02:45:11.638Z,3.03
2022-11-28T02:46:11.662Z,2.98
2022-11-28T02:47:11.684Z,2.97
2022-11-28T02:48:11.656Z,2.94
2022-11-28T02:49:11.664Z,2.95
2022-11-28T02:50:11.673Z,3.05
2022-11-28T02:51:11.680Z,2.95
2022-11-28T02:52:11.690Z,2.94
2022-11-28T02:53:11.699Z,2.88
2022-11-28T02:54:11.710Z,2.94
2022-11-28T02:55:11.716Z,3.03
2022-11-28T02:56:11.724Z,2.97
2022-11-28T02:57:11.743Z,2.97
2022-11-28T02:58:11.744Z,3.05
2022-11-28T02:59:11.753Z,2.94
2022-11-28T03:00:16.531Z,3.00
2022-11-28T03:01:11.816Z,2.95
2022-11-28T03:02:11.806Z,2.83
2022-11-28T03:03:11.790Z,2.90
2022-11-28T03:04:11.799Z,2.97
2022-11-28T03:05:11.807Z,2.90
2022-11-28T03:06:11.819Z,2.97
2022-11-28T03:07:11.824Z,2.97
2022-11-28T03:08:11.831Z,2.95
2022-11-28T03:09:11.840Z,2.94
2022-11-28T03:10:11.849Z,2.91
2022-11-28T03:11:11.860Z,2.95
2022-11-28T03:12:11.868Z,2.98
2022-11-28T03:13:11.875Z,2.91
2022-11-28T03:14:11.887Z,2.87
2022-11-28T03:15:11.895Z,2.94
2022-11-28T03:16:11.938Z,2.98
2022-11-28T03:17:11.916Z,2.94
2022-11-28T03:18:11.920Z,2.93
2022-11-28T03:19:11.929Z,2.94
2022-11-28T03:20:11.937Z,2.91
2022-11-28T03:21:11.948Z,2.91
2022-11-28T03:22:11.954Z,2.94
2022-11-28T03:23:11.964Z,2.98
2022-11-28T03:24:11.973Z,2.90
2022-11-28T03:25:11.981Z,2.90
2022-11-28T03:26:11.990Z,2.90
2022-11-28T03:27:12.001Z,2.88
2022-11-28T03:28:12.013Z,2.97
2022-11-28T03:29:12.019Z,2.93
2022-11-28T03:30:12.030Z,2.91
2022-11-28T03:31:12.043Z,2.98
2022-11-28T03:32:12.044Z,2.87
2022-11-28T03:33:12.053Z,2.90
2022-11-28T03:34:12.063Z,2.83
2022-11-28T03:35:12.073Z,2.93
2022-11-28T03:36:12.080Z,2.93
2022-11-28T03:37:12.087Z,2.93
2022-11-28T03:38:12.098Z,2.83
2022-11-28T03:39:12.106Z,2.93
2022-11-28T03:40:12.115Z,2.82
2022-11-28T03:41:12.125Z,2.82
2022-11-28T03:42:12.135Z,2.87
2022-11-28T03:43:12.147Z,2.83
2022-11-28T03:44:12.153Z,2.85
2022-11-28T03:45:12.156Z,2.82
2022-11-28T03:46:12.228Z,2.83
2022-11-28T03:47:12.206Z,2.83
2022-11-28T03:48:12.187Z,2.91
2022-11-28T03:49:12.193Z,2.82
2022-11-28T03:50:12.201Z,2.83
2022-11-28T03:51:12.211Z,2.85
2022-11-28T03:52:12.219Z,2.88
2022-11-28T03:53:12.226Z,2.80
2022-11-28T03:54:12.235Z,2.83
2022-11-28T03:55:12.250Z,2.79
2022-11-28T03:56:12.452Z,2.85
2022-11-28T03:57:12.259Z,2.80
2022-11-28T03:58:12.270Z,2.68
2022-11-28T03:59:12.281Z,2.87
2022-11-28T04:00:12.287Z,2.80
2022-11-28T04:01:12.368Z,2.75
2022-11-28T04:02:12.308Z,2.70
2022-11-28T04:03:12.413Z,2.77
2022-11-28T04:04:12.323Z,2.73
2022-11-28T04:05:12.330Z,2.68
2022-11-28T04:06:12.391Z,2.73
2022-11-28T04:07:12.532Z,2.72
2022-11-28T04:08:12.359Z,2.68
2022-11-28T04:09:14.542Z,2.70
2022-11-28T04:10:12.379Z,2.70
2022-11-28T04:11:12.409Z,2.76
2022-11-28T04:12:12.402Z,2.65
2022-11-28T04:13:12.406Z,2.70
2022-11-28T04:14:12.409Z,2.77
2022-11-28T04:15:12.417Z,2.61
2022-11-28T04:16:12.469Z,2.64
2022-11-28T04:17:12.440Z,2.69
2022-11-28T04:18:12.454Z,2.54
2022-11-28T04:19:12.458Z,2.52
2022-11-28T04:20:12.461Z,2.65
2022-11-28T04:21:12.468Z,2.68
2022-11-28T04:22:12.479Z,2.54
2022-11-28T04:23:12.487Z,2.52
2022-11-28T04:24:12.495Z,2.52
2022-11-28T04:25:12.511Z,2.50
2022-11-28T04:26:12.512Z,2.47
2022-11-28T04:27:12.519Z,2.58
2022-11-28T04:28:12.529Z,2.50
2022-11-28T04:29:12.535Z,2.50
2022-11-28T04:30:12.552Z,2.51
2022-11-28T04:31:12.615Z,2.51
2022-11-28T04:32:12.560Z,2.50
2022-11-28T04:33:12.569Z,2.52
2022-11-28T04:34:12.579Z,2.52
2022-11-28T04:35:12.588Z,2.46
2022-11-28T04:36:12.595Z,2.52
2022-11-28T04:37:12.604Z,2.55
2022-11-28T04:38:12.613Z,2.51
2022-11-28T04:39:12.623Z,2.50
2022-11-28T04:40:12.632Z,2.55
2022-11-28T04:41:12.637Z,2.51
2022-11-28T04:42:12.647Z,2.61
2022-11-28T04:43:12.656Z,2.58
2022-11-28T04:44:12.664Z,2.64
2022-11-28T04:45:12.672Z,2.62
2022-11-28T04:46:12.705Z,2.64
2022-11-28T04:47:12.689Z,2.64
2022-11-28T04:48:12.700Z,2.70
2022-11-28T04:49:12.706Z,2.73
2022-11-28T04:50:12.715Z,2.75
2022-11-28T04:51:12.725Z,2.75
2022-11-28T04:52:12.736Z,2.72
2022-11-28T04:53:12.740Z,2.77
2022-11-28T04:54:12.751Z,2.82
2022-11-28T04:55:12.760Z,2.88
2022-11-28T04:56:12.766Z,2.87
2022-11-28T04:57:12.777Z,2.88
2022-11-28T04:58:12.786Z,2.82
2022-11-28T04:59:12.794Z,2.85
2022-11-28T05:00:12.802Z,2.97
2022-11-28T05:01:12.855Z,2.95
2022-11-28T05:02:12.872Z,3.00
2022-11-28T05:03:12.829Z,2.88
2022-11-28T05:04:12.835Z,2.80
2022-11-28T05:05:12.845Z,2.98
2022-11-28T05:06:12.855Z,2.88
2022-11-28T05:07:12.928Z,2.98
2022-11-28T05:08:12.871Z,2.94
2022-11-28T05:09:12.881Z,2.93
2022-11-28T05:10:12.889Z,2.94
2022-11-28T05:11:12.898Z,3.11
2022-11-28T05:12:12.907Z,3.05
2022-11-28T05:13:12.915Z,3.00
2022-11-28T05:14:12.926Z,3.03
2022-11-28T05:15:12.937Z,3.12
2022-11-28T05:16:12.980Z,3.09
2022-11-28T05:17:12.968Z,3.16
2022-11-28T05:18:12.962Z,3.12
2022-11-28T05:19:12.969Z,3.16
2022-11-28T05:20:12.978Z,3.12
2022-11-28T05:21:12.988Z,3.09
2022-11-28T05:22:12.998Z,3.12
2022-11-28T05:23:13.006Z,3.11
2022-11-28T05:24:13.014Z,3.13
2022-11-28T05:25:13.026Z,3.21
2022-11-28T05:26:13.036Z,3.09
2022-11-28T05:27:13.043Z,3.22
2022-11-28T05:28:13.051Z,3.18
2022-11-28T05:29:13.059Z,3.27
2022-11-28T05:30:13.072Z,3.24
2022-11-28T05:31:13.126Z,3.26
2022-11-28T05:32:13.087Z,3.33
2022-11-28T05:33:13.096Z,3.26
2022-11-28T05:34:13.104Z,3.30
2022-11-28T05:35:13.116Z,3.26
2022-11-28T05:36:13.680Z,3.29
2022-11-28T05:37:13.132Z,3.29
2022-11-28T05:38:13.813Z,3.26
2022-11-28T05:39:13.153Z,3.30
2022-11-28T05:40:13.160Z,3.26
2022-11-28T05:41:13.170Z,3.30
2022-11-28T05:42:13.177Z,3.22
2022-11-28T05:43:13.188Z,3.37
2022-11-28T05:44:13.196Z,3.40
2022-11-28T05:45:13.204Z,3.40
2022-11-28T05:46:13.252Z,3.36
2022-11-28T05:47:13.224Z,3.43
2022-11-28T05:48:13.233Z,3.36
2022-11-28T05:49:13.244Z,3.36
2022-11-28T05:50:13.252Z,3.41
2022-11-28T05:51:13.261Z,3.43
2022-11-28T05:52:13.270Z,3.41
2022-11-28T05:53:13.286Z,3.34
2022-11-28T05:54:13.290Z,3.34
2022-11-28T05:55:13.307Z,3.40
2022-11-28T05:56:13.305Z,3.41
2022-11-28T05:57:13.319Z,3.45
2022-11-28T05:58:13.324Z,3.45
2022-11-28T05:59:13.334Z,3.37
2022-11-28T06:00:13.343Z,3.41
2022-11-28T06:01:13.351Z,3.40
2022-11-28T06:02:13.426Z,3.45
2022-11-28T06:03:13.370Z,3.48
2022-11-28T06:04:13.423Z,3.45
2022-11-28T06:05:35.079Z,3.41
2022-11-28T06:06:13.399Z,3.48
2022-11-28T06:07:13.445Z,3.41
2022-11-28T06:08:13.420Z,3.41
2022-11-28T06:09:13.427Z,3.43
2022-11-28T06:10:13.436Z,3.41
2022-11-28T06:11:13.445Z,3.45
2022-11-28T06:12:13.454Z,3.45
2022-11-28T06:13:13.462Z,3.43
2022-11-28T06:14:13.474Z,3.41
2022-11-28T06:15:13.481Z,3.36
2022-11-28T06:16:13.515Z,3.41
2022-11-28T06:17:13.500Z,3.37
2022-11-28T06:18:13.511Z,3.40
2022-11-28T06:19:13.523Z,3.36
2022-11-28T06:20:13.530Z,3.40
2022-11-28T06:21:13.542Z,3.41
2022-11-28T06:22:13.546Z,3.36
2022-11-28T06:23:13.556Z,3.41
2022-11-28T06:24:13.563Z,3.43
2022-11-28T06:25:13.578Z,3.34
2022-11-28T06:26:13.582Z,3.34
2022-11-28T06:27:13.595Z,3.36
2022-11-28T06:28:13.611Z,3.37
2022-11-28T06:29:13.617Z,3.26
2022-11-28T06:30:13.621Z,3.30
2022-11-28T06:31:13.713Z,3.34
2022-11-28T06:32:16.503Z,3.30
2022-11-28T06:33:13.645Z,3.31
2022-11-28T06:34:13.657Z,3.30
2022-11-28T06:35:13.664Z,3.26
2022-11-28T06:36:13.674Z,3.31
2022-11-28T06:37:13.683Z,3.37
2022-11-28T06:38:14.491Z,3.30
2022-11-28T06:39:13.702Z,3.29
2022-11-28T06:40:13.710Z,3.29
2022-11-28T06:41:13.720Z,3.33
2022-11-28T06:42:13.729Z,3.27
2022-11-28T06:43:13.747Z,3.27
2022-11-28T06:44:13.745Z,3.21
2022-11-28T06:45:13.755Z,3.21
2022-11-28T06:46:16.162Z,3.22
2022-11-28T06:47:13.775Z,3.26
2022-11-28T06:48:13.784Z,3.19
2022-11-28T06:49:13.792Z,3.29
2022-11-28T06:50:13.799Z,3.21
2022-11-28T06:51:13.818Z,3.19
2022-11-28T06:52:13.818Z,3.22
2022-11-28T06:53:13.828Z,3.15
2022-11-28T06:54:13.836Z,3.19
2022-11-28T06:55:13.845Z,3.08
2022-11-28T06:56:13.863Z,3.13
2022-11-28T06:57:13.864Z,3.09
2022-11-28T06:58:13.884Z,3.05
2022-11-28T06:59:13.887Z,3.06
2022-11-28T07:00:13.893Z,3.16
2022-11-28T07:01:13.983Z,3.05
2022-11-28T07:02:14.013Z,3.13
2022-11-28T07:03:13.919Z,3.09
2022-11-28T07:04:13.925Z,3.06
2022-11-28T07:05:13.936Z,3.11
2022-11-28T07:06:13.944Z,3.08
2022-11-28T07:07:16.445Z,3.01
2022-11-28T07:08:14.002Z,3.00
2022-11-28T07:09:13.971Z,3.00
2022-11-28T07:10:13.980Z,3.05
2022-11-28T07:11:13.990Z,3.13
2022-11-28T07:12:14.004Z,3.05
2022-11-28T07:13:14.006Z,3.03
2022-11-28T07:14:14.014Z,3.06
2022-11-28T07:15:14.026Z,3.05
2022-11-28T07:16:14.080Z,3.06
2022-11-28T07:17:14.050Z,3.03
2022-11-28T07:18:14.051Z,3.06
2022-11-28T07:19:14.061Z,3.08
2022-11-28T07:20:14.068Z,3.08
2022-11-28T07:21:14.078Z,3.13
2022-11-28T07:22:14.086Z,3.12
2022-11-28T07:23:14.103Z,3.16
2022-11-28T07:24:14.108Z,3.03
2022-11-28T07:25:14.116Z,3.12
2022-11-28T07:26:14.135Z,3.08
2022-11-28T07:27:14.132Z,3.03
2022-11-28T07:28:14.141Z,3.09
2022-11-28T07:29:14.150Z,3.11
2022-11-28T07:30:14.160Z,3.09
2022-11-28T07:31:14.266Z,3.13
2022-11-28T07:32:14.225Z,3.09
2022-11-28T07:33:14.185Z,3.11
2022-11-28T07:34:14.195Z,3.12
2022-11-28T07:35:14.208Z,3.15
2022-11-28T07:36:14.211Z,3.08
2022-11-28T07:37:14.220Z,3.06
2022-11-28T07:38:14.229Z,3.12
2022-11-28T07:39:14.242Z,3.19
2022-11-28T07:40:14.251Z,3.08
2022-11-28T07:41:14.265Z,3.21
2022-11-28T07:42:14.267Z,3.18
2022-11-28T07:43:14.274Z,3.16
2022-11-28T07:44:14.288Z,3.18
2022-11-28T07:45:14.303Z,3.22
2022-11-28T07:46:14.420Z,3.19
2022-11-28T07:47:14.317Z,3.21
2022-11-28T07:48:14.322Z,3.16
2022-11-28T07:49:14.330Z,3.31
2022-11-28T07:50:14.335Z,3.19
2022-11-28T07:51:14.348Z,3.27
2022-11-28T07:52:14.356Z,3.36
2022-11-28T07:53:14.367Z,3.31
2022-11-28T07:54:14.372Z,3.36
2022-11-28T07:55:14.385Z,3.26
2022-11-28T07:56:14.391Z,3.43
2022-11-28T07:57:14.449Z,3.43
2022-11-28T07:58:14.412Z,3.36
2022-11-28T07:59:14.418Z,3.40
2022-11-28T08:00:14.428Z,3.43
2022-11-28T08:01:14.437Z,3.37
2022-11-28T08:02:14.532Z,3.40
2022-11-28T08:03:14.456Z,3.45
2022-11-28T08:04:14.516Z,3.50
2022-11-28T08:05:14.548Z,3.53
2022-11-28T08:06:14.486Z,3.45
2022-11-28T08:07:14.552Z,3.52
2022-11-28T08:08:14.504Z,3.52
2022-11-28T08:09:14.512Z,3.46
2022-11-28T08:10:14.520Z,3.56
2022-11-28T08:11:14.531Z,3.53
2022-11-28T08:12:14.538Z,3.50
2022-11-28T08:13:14.550Z,3.61
2022-11-28T08:14:14.559Z,3.61
2022-11-28T08:15:14.568Z,3.67
2022-11-28T08:16:14.642Z,3.73
2022-11-28T08:17:14.588Z,3.71
2022-11-28T08:18:14.596Z,3.68
2022-11-28T08:19:14.607Z,3.76
2022-11-28T08:20:14.616Z,3.76
2022-11-28T08:21:14.625Z,3.78
2022-11-28T08:22:14.636Z,3.88
2022-11-28T08:23:14.644Z,3.91
2022-11-28T08:24:14.654Z,3.92
2022-11-28T08:25:14.664Z,3.91
2022-11-28T08:26:14.674Z,4.03
2022-11-28T08:27:14.686Z,4.03
2022-11-28T08:28:14.693Z,4.00
2022-11-28T08:29:14.705Z,4.06
2022-11-28T08:30:14.721Z,4.03
2022-11-28T08:31:14.776Z,4.04
2022-11-28T08:32:14.732Z,4.10
2022-11-28T08:33:14.743Z,4.18
2022-11-28T08:34:14.755Z,4.06
2022-11-28T08:35:14.762Z,4.14
2022-11-28T08:36:14.772Z,4.14
2022-11-28T08:37:14.787Z,4.22
2022-11-28T08:38:14.796Z,4.20
2022-11-28T08:39:30.066Z,4.25
2022-11-28T08:40:14.813Z,4.30
2022-11-28T08:41:14.823Z,4.28
2022-11-28T08:42:14.839Z,4.32
2022-11-28T08:43:14.847Z,4.34
2022-11-28T08:44:14.854Z,4.30
2022-11-28T08:45:14.864Z,4.31
2022-11-28T08:46:14.942Z,4.32
2022-11-28T08:47:14.884Z,4.36
2022-11-28T08:48:14.894Z,4.42
2022-11-28T08:49:14.903Z,4.45
2022-11-28T08:50:14.917Z,4.39
2022-11-28T08:51:14.927Z,4.43
2022-11-28T08:52:14.944Z,4.45
2022-11-28T08:53:18.433Z,4.52
2022-11-28T08:54:14.956Z,4.49
2022-11-28T08:55:14.965Z,4.56
2022-11-28T08:56:14.977Z,4.61
2022-11-28T08:57:14.986Z,4.58
2022-11-28T08:58:14.998Z,4.50
2022-11-28T08:59:15.008Z,4.64
2022-11-28T09:00:15.020Z,4.74
2022-11-28T09:01:15.075Z,4.78
2022-11-28T09:02:15.039Z,4.78
2022-11-28T09:03:15.055Z,4.74
2022-11-28T09:04:15.118Z,4.71
2022-11-28T09:05:15.073Z,4.70
2022-11-28T09:06:15.080Z,4.76
2022-11-28T09:07:15.191Z,4.79
2022-11-28T09:08:15.103Z,4.76
2022-11-28T09:09:15.114Z,4.78
2022-11-28T09:10:15.140Z,4.83
2022-11-28T09:11:15.145Z,4.89
2022-11-28T09:12:15.148Z,4.84
2022-11-28T09:13:15.157Z,4.86
2022-11-28T09:14:15.168Z,4.84
2022-11-28T09:15:15.187Z,4.90
2022-11-28T09:16:15.271Z,4.94
2022-11-28T09:17:15.233Z,4.90
2022-11-28T09:18:15.212Z,4.90
2022-11-28T09:19:15.220Z,4.92
2022-11-28T09:20:15.232Z,4.92
2022-11-28T09:21:15.252Z,4.98
2022-11-28T09:22:15.249Z,4.97
2022-11-28T09:23:15.265Z,4.98
2022-11-28T09:24:15.278Z,5.01
2022-11-28T09:25:15.286Z,5.08
2022-11-28T09:26:15.295Z,5.01
2022-11-28T09:27:15.309Z,4.98
2022-11-28T09:28:15.319Z,5.07
2022-11-28T09:29:15.327Z,5.04
2022-11-28T09:30:15.340Z,5.00
2022-11-28T09:31:15.497Z,5.02
2022-11-28T09:32:15.359Z,4.94
2022-11-28T09:33:15.371Z,4.92
2022-11-28T09:34:15.384Z,4.97
2022-11-28T09:35:15.396Z,4.94
2022-11-28T09:36:15.408Z,5.01
2022-11-28T09:37:15.413Z,4.94
2022-11-28T09:38:15.426Z,4.90
2022-11-28T09:39:15.436Z,5.00
2022-11-28T09:40:15.824Z,4.92
2022-11-28T09:41:15.456Z,4.95
2022-11-28T09:42:15.470Z,5.02
2022-11-28T09:43:15.482Z,5.01
2022-11-28T09:44:15.492Z,4.98
2022-11-28T09:45:15.500Z,5.01
2022-11-28T09:46:15.537Z,5.05
2022-11-28T09:47:15.522Z,5.02
2022-11-28T09:48:15.534Z,5.05
2022-11-28T09:49:15.546Z,5.02
2022-11-28T09:50:15.562Z,5.01
2022-11-28T09:51:15.569Z,4.97
2022-11-28T09:52:15.629Z,5.02
2022-11-28T09:53:15.586Z,5.08
2022-11-28T09:54:15.600Z,5.05
2022-11-28T09:55:15.609Z,5.08
2022-11-28T09:56:15.620Z,5.05
2022-11-28T09:57:15.631Z,5.04
2022-11-28T09:58:15.644Z,5.05
2022-11-28T09:59:15.654Z,5.08
2022-11-28T10:00:15.664Z,5.12
2022-11-28T10:01:15.673Z,5.18
2022-11-28T10:02:15.686Z,5.18
2022-11-28T10:03:15.739Z,5.19
2022-11-28T10:04:15.861Z,5.15
2022-11-28T10:05:15.721Z,5.19
2022-11-28T10:06:15.729Z,5.13
2022-11-28T10:07:15.835Z,5.20
2022-11-28T10:08:15.751Z,5.13
2022-11-28T10:09:15.761Z,5.22
2022-11-28T10:10:15.774Z,5.28
2022-11-28T10:11:15.785Z,5.28
2022-11-28T10:12:15.796Z,5.18
2022-11-28T10:13:15.807Z,5.33
2022-11-28T10:14:15.815Z,5.25
2022-11-28T10:15:15.829Z,5.29
2022-11-28T10:16:15.876Z,5.36
2022-11-28T10:17:15.897Z,5.34
2022-11-28T10:18:15.863Z,5.36
2022-11-28T10:19:31.685Z,5.29
2022-11-28T10:20:15.887Z,5.40
2022-11-28T10:21:15.900Z,5.46
2022-11-28T10:22:15.907Z,5.46
2022-11-28T10:23:15.919Z,5.59
2022-11-28T10:24:15.929Z,5.55
2022-11-28T10:25:15.941Z,5.59
2022-11-28T10:26:15.951Z,5.44
2022-11-28T10:27:15.961Z,5.59
2022-11-28T10:28:15.974Z,5.54
2022-11-28T10:29:15.986Z,5.69
2022-11-28T10:30:16.025Z,5.61
2022-11-28T10:31:16.086Z,5.64
2022-11-28T10:32:16.021Z,5.64
2022-11-28T10:33:16.033Z,5.67
2022-11-28T10:34:16.047Z,5.64
2022-11-28T10:35:16.055Z,5.64
2022-11-28T10:36:16.066Z,5.62
2022-11-28T10:37:16.079Z,5.62
2022-11-28T10:38:16.089Z,5.58
2022-11-28T10:39:16.100Z,5.58
2022-11-28T10:40:16.154Z,5.61
2022-11-28T10:41:16.131Z,5.67
2022-11-28T10:42:16.153Z,5.65
2022-11-28T10:43:16.153Z,5.67
2022-11-28T10:44:21.321Z,5.64
2022-11-28T10:45:16.168Z,5.65
2022-11-28T10:46:16.265Z,5.69
2022-11-28T10:47:16.195Z,5.62
2022-11-28T10:48:41.291Z,5.74
2022-11-28T10:49:16.215Z,5.70
2022-11-28T10:50:16.236Z,5.72
2022-11-28T10:51:16.235Z,5.83
2022-11-28T10:52:16.250Z,5.73
2022-11-28T10:53:16.260Z,5.79
2022-11-28T10:54:16.270Z,5.76
2022-11-28T10:55:16.284Z,5.77
2022-11-28T10:56:16.294Z,5.80
2022-11-28T10:57:16.305Z,5.74
2022-11-28T10:58:16.319Z,5.80
2022-11-28T10:59:16.328Z,5.74
2022-11-28T11:00:16.342Z,5.87
2022-11-28T11:01:16.422Z,5.84
2022-11-28T11:02:16.364Z,5.81
2022-11-28T11:03:16.376Z,5.90
2022-11-28T11:04:16.436Z,5.94
2022-11-28T11:05:16.401Z,5.90
2022-11-28T11:06:16.412Z,5.91
2022-11-28T11:07:20.199Z,5.97
2022-11-28T11:08:16.513Z,5.87
2022-11-28T11:09:16.446Z,5.94
2022-11-28T11:10:16.457Z,5.94
2022-11-28T11:11:16.479Z,5.94
2022-11-28T11:12:16.490Z,6.07
2022-11-28T11:13:16.494Z,6.09
2022-11-28T11:14:16.506Z,6.10
2022-11-28T11:15:16.525Z,6.07
2022-11-28T11:16:16.610Z,6.05
2022-11-28T11:17:16.540Z,6.10
2022-11-28T11:18:16.555Z,6.07
2022-11-28T11:19:16.564Z,6.20
2022-11-28T11:20:16.578Z,6.17
2022-11-28T11:21:16.588Z,6.10
2022-11-28T11:22:16.601Z,6.17
2022-11-28T11:23:16.617Z,6.19
2022-11-28T11:24:16.625Z,6.19
2022-11-28T11:25:16.638Z,6.17
2022-11-28T11:26:16.648Z,6.22
2022-11-28T11:27:16.660Z,6.19
2022-11-28T11:28:16.678Z,6.28
2022-11-28T11:29:16.684Z,6.15
2022-11-28T11:30:16.699Z,6.26
2022-11-28T11:31:16.816Z,6.25
2022-11-28T11:32:16.721Z,6.15
2022-11-28T11:33:16.734Z,6.28
2022-11-28T11:34:16.747Z,6.22
2022-11-28T11:35:16.761Z,6.28
2022-11-28T11:36:16.770Z,6.22
2022-11-28T11:37:16.782Z,6.17
2022-11-28T11:38:16.795Z,6.28
2022-11-28T11:39:16.808Z,6.17
2022-11-28T11:40:16.818Z,6.34
2022-11-28T11:41:16.831Z,6.17
2022-11-28T11:42:16.843Z,6.19
2022-11-28T11:43:16.856Z,6.31
2022-11-28T11:44:16.872Z,6.28
2022-11-28T11:45:16.880Z,6.29
2022-11-28T11:46:16.934Z,6.41
2022-11-28T11:47:16.903Z,6.22
2022-11-28T11:48:16.917Z,6.29
2022-11-28T11:49:16.929Z,6.32
2022-11-28T11:50:16.940Z,6.36
2022-11-28T11:51:16.953Z,6.32
2022-11-28T11:52:16.967Z,6.39
2022-11-28T11:53:16.980Z,6.36
2022-11-28T11:54:16.990Z,6.39
2022-11-28T11:55:17.000Z,6.36
2022-11-28T11:56:17.014Z,6.47
2022-11-28T11:57:34.002Z,6.43
2022-11-28T11:58:17.038Z,6.39
2022-11-28T11:59:17.050Z,6.35
2022-11-28T12:00:17.068Z,6.47
2022-11-28T12:01:17.077Z,6.43
2022-11-28T12:02:17.146Z,6.43
2022-11-28T12:03:17.259Z,6.39
2022-11-28T12:04:37.475Z,6.32
2022-11-28T12:05:17.133Z,6.39
2022-11-28T12:06:17.134Z,6.29
2022-11-28T12:07:17.184Z,6.28
2022-11-28T12:08:17.158Z,6.32
2022-11-28T12:09:17.170Z,6.29
2022-11-28T12:10:17.185Z,6.28
2022-11-28T12:11:17.199Z,6.28
2022-11-28T12:12:17.209Z,6.26
2022-11-28T12:13:17.223Z,6.32
2022-11-28T12:14:17.235Z,6.25
2022-11-28T12:15:17.249Z,6.26
2022-11-28T12:16:17.346Z,6.25
2022-11-28T12:17:46.817Z,6.31
2022-11-28T12:18:17.278Z,6.28
2022-11-28T12:19:17.292Z,6.25
2022-11-28T12:20:17.307Z,6.20
2022-11-28T12:21:17.314Z,6.17
2022-11-28T12:22:17.326Z,6.16
2022-11-28T12:23:17.711Z,6.19
2022-11-28T12:24:17.349Z,6.16
2022-11-28T12:25:17.364Z,6.19
2022-11-28T12:26:17.377Z,6.16
2022-11-28T12:27:17.386Z,6.25
2022-11-28T12:28:17.402Z,6.28
2022-11-28T12:29:17.425Z,6.13
2022-11-28T12:30:17.436Z,6.20
2022-11-28T12:31:17.506Z,6.22
2022-11-28T12:32:17.445Z,6.35
2022-11-28T12:33:17.458Z,6.25
2022-11-28T12:34:17.473Z,6.28
2022-11-28T12:35:17.482Z,6.31
2022-11-28T12:36:17.496Z,6.34
2022-11-28T12:37:17.507Z,6.41
2022-11-28T12:38:17.519Z,6.39
2022-11-28T12:39:17.530Z,6.44
2022-11-28T12:40:17.542Z,6.47
2022-11-28T12:41:17.555Z,6.46
2022-11-28T12:42:17.566Z,6.44
2022-11-28T12:43:17.579Z,6.44
2022-11-28T12:44:17.594Z,6.52
2022-11-28T12:45:17.602Z,6.59
2022-11-28T12:46:17.637Z,6.52
2022-11-28T12:47:17.628Z,6.57
2022-11-28T12:48:17.639Z,6.57
2022-11-28T12:49:17.660Z,6.64
2022-11-28T12:50:17.664Z,6.64
2022-11-28T12:51:17.675Z,6.60
2022-11-28T12:52:17.687Z,6.57
2022-11-28T12:53:17.698Z,6.60
2022-11-28T12:54:17.712Z,6.56
2022-11-28T12:55:17.725Z,6.57
2022-11-28T12:56:17.737Z,6.57
2022-11-28T12:57:17.752Z,6.59
2022-11-28T12:58:17.763Z,6.57
2022-11-28T12:59:17.772Z,6.62
2022-11-28T13:00:17.788Z,6.62
2022-11-28T13:01:17.912Z,6.67
2022-11-28T13:02:17.839Z,6.70
2022-11-28T13:03:17.852Z,6.74
2022-11-28T13:04:17.833Z,6.68
2022-11-28T13:05:17.853Z,6.72
2022-11-28T13:06:17.863Z,6.68
2022-11-28T13:07:17.886Z,6.65
2022-11-28T13:08:17.883Z,6.67
2022-11-28T13:09:17.899Z,6.64
2022-11-28T13:10:17.909Z,6.62
2022-11-28T13:11:17.920Z,6.64
2022-11-28T13:12:17.936Z,6.54
2022-11-28T13:13:17.943Z,6.60
2022-11-28T13:14:17.956Z,6.53
2022-11-28T13:15:17.970Z,6.52
2022-11-28T13:16:20.849Z,6.52
2022-11-28T13:17:17.994Z,6.44
2022-11-28T13:18:18.006Z,6.44